Time;durP1;ratioP1;P1;durP2;ratioP2;P2;SDS_P1;SDS_P2;PMS_P1;PMS_P2;Temp;Humidity;BMP_temperature;BMP_pressure;BME280_temperature;BME280_humidity;BME280_pressure;Samples;Min_cycle;Max_cycle;Signal;HPM_P1;HPM_P2
2022/09/29 00:00:28;;;;;;;2.45;1.25;;;7.70;99.90;;;;;;5094229;28;20041;-71
2022/09/29 00:02:54;;;;;;;1.67;0.93;;;7.70;99.90;;;;;;5081644;28;20538;-71
2022/09/29 00:05:20;;;;;;;1.90;1.15;;;7.80;99.90;;;;;;5061551;28;20040;-71
2022/09/29 00:07:46;;;;;;;2.67;1.00;;;7.80;99.90;;;;;;5078226;28;20037;-71
2022/09/29 00:10:12;;;;;;;2.33;0.70;;;7.60;99.90;;;;;;5062104;28;20140;-71
2022/09/29 00:12:37;;;;;;;1.58;1.00;;;7.70;99.90;;;;;;5060823;28;20055;-71
2022/09/29 00:15:04;;;;;;;2.05;0.93;;;7.60;99.90;;;;;;5063822;28;20044;-71
2022/09/29 00:17:29;;;;;;;0.98;0.60;;;7.60;99.90;;;;;;5076741;28;20043;-72
2022/09/29 00:19:55;;;;;;;0.30;0.22;;;7.50;99.90;;;;;;5069019;28;20032;-71
2022/09/29 00:22:20;;;;;;;0.70;0.50;;;7.50;99.90;;;;;;5044624;28;20570;-71
2022/09/29 00:24:47;;;;;;;0.98;0.70;;;7.40;99.90;;;;;;5047423;28;20045;-71
2022/09/29 00:27:17;;;;;;;1.75;0.52;;;7.40;99.90;;;;;;5077032;28;20135;-71
2022/09/29 00:29:44;;;;;;;1.70;0.80;;;7.40;99.90;;;;;;5065801;28;20494;-71
2022/09/29 00:32:10;;;;;;;1.33;0.73;;;7.30;99.90;;;;;;5076670;28;20044;-71
2022/09/29 00:34:35;;;;;;;1.35;0.80;;;7.30;99.90;;;;;;5054954;28;20041;-71
2022/09/29 00:37:01;;;;;;;2.10;0.73;;;7.30;99.90;;;;;;5061401;28;20101;-71
2022/09/29 00:39:27;;;;;;;1.52;1.00;;;7.30;99.90;;;;;;5064880;28;20041;-71
2022/09/29 00:41:52;;;;;;;1.85;0.85;;;7.30;99.90;;;;;;5059407;28;20040;-71
2022/09/29 00:44:18;;;;;;;2.95;1.58;;;7.30;99.90;;;;;;5060188;28;20040;-71
2022/09/29 00:46:45;;;;;;;1.98;1.23;;;7.30;99.90;;;;;;5075610;28;20487;-71
2022/09/29 00:49:11;;;;;;;1.77;0.93;;;7.30;99.90;;;;;;5062820;28;20395;-71
2022/09/29 00:51:39;;;;;;;3.15;1.10;;;7.30;99.90;;;;;;5059160;28;20037;-71
2022/09/29 00:54:06;;;;;;;2.08;0.95;;;7.30;99.90;;;;;;5092864;28;20047;-71
2022/09/29 00:56:35;;;;;;;2.08;1.00;;;7.30;99.90;;;;;;5093757;28;20044;-71
2022/09/29 00:59:03;;;;;;;3.20;1.13;;;7.30;99.90;;;;;;5062749;28;20185;-71
2022/09/29 01:01:31;;;;;;;1.33;0.70;;;7.20;99.90;;;;;;5062534;28;20044;-71
2022/09/29 01:04:03;;;;;;;1.50;0.98;;;7.20;99.90;;;;;;5073074;28;20402;-71
2022/09/29 01:06:37;;;;;;;1.55;0.73;;;7.20;99.90;;;;;;5058253;28;20051;-71
2022/09/29 01:09:10;;;;;;;1.05;0.82;;;7.20;99.90;;;;;;5058539;28;20036;-71
2022/09/29 01:11:36;;;;;;;1.73;0.82;;;7.20;99.90;;;;;;5076857;28;20043;-71
2022/09/29 01:14:05;;;;;;;1.90;1.10;;;7.20;99.90;;;;;;5072359;28;20440;-71
2022/09/29 01:16:32;;;;;;;2.10;1.23;;;7.10;99.90;;;;;;5094996;28;20045;-71
2022/09/29 01:19:01;;;;;;;1.88;1.25;;;7.10;99.90;;;;;;5057380;28;20036;-71
2022/09/29 01:21:52;;;;;;;1.73;0.90;;;7.10;99.90;;;;;;5058983;28;20064;-71
2022/09/29 01:24:44;;;;;;;1.85;0.98;;;7.10;99.90;;;;;;5061769;28;20059;-71
2022/09/29 01:27:28;;;;;;;3.15;1.33;;;7.10;99.90;;;;;;5065224;28;20477;-71
2022/09/29 01:30:05;;;;;;;2.40;1.20;;;7.10;99.90;;;;;;5088555;27;20041;-71
2022/09/29 01:32:39;;;;;;;2.20;1.13;;;7.10;99.90;;;;;;5076783;28;20032;-71
2022/09/29 01:35:19;;;;;;;2.63;1.10;;;7.10;99.90;;;;;;5057368;28;20490;-71
2022/09/29 01:38:44;;;;;;;1.55;0.80;;;7.00;99.90;;;;;;5058170;28;20037;-72
2022/09/29 01:41:12;;;;;;;2.22;1.15;;;7.00;99.90;;;;;;5048598;28;20055;-72
2022/09/29 01:43:56;;;;;;;1.80;0.80;;;7.00;99.90;;;;;;5059221;28;20398;-71
2022/09/29 01:46:35;;;;;;;1.27;0.88;;;7.00;99.90;;;;;;5058917;28;20051;-71
2022/09/29 01:49:03;;;;;;;1.20;0.75;;;7.00;99.90;;;;;;5074726;28;20535;-71
2022/09/29 01:51:47;;;;;;;2.40;1.05;;;7.00;99.90;;;;;;5057526;28;20762;-71
2022/09/29 01:54:20;;;;;;;2.38;1.00;;;7.00;99.90;;;;;;5091041;28;20502;-71
2022/09/29 01:57:01;;;;;;;2.40;1.33;;;7.00;99.90;;;;;;5057226;28;20052;-71
2022/09/29 01:59:40;;;;;;;3.40;1.00;;;7.00;99.90;;;;;;5059783;28;20076;-71
2022/09/29 02:02:11;;;;;;;1.48;0.95;;;7.00;99.90;;;;;;5050863;28;20059;-72
2022/09/29 02:04:49;;;;;;;1.58;0.93;;;7.00;99.90;;;;;;5059226;28;20114;-72
2022/09/29 02:07:42;;;;;;;1.40;1.00;;;7.00;99.90;;;;;;5061043;28;20119;-72
2022/09/29 02:10:20;;;;;;;1.70;1.05;;;7.00;99.90;;;;;;5056366;28;20044;-71
2022/09/29 02:12:50;;;;;;;1.40;0.88;;;7.00;99.90;;;;;;5077662;28;20561;-71
2022/09/29 02:15:21;;;;;;;1.67;0.80;;;6.90;99.90;;;;;;5083422;28;20044;-71
2022/09/29 02:17:49;;;;;;;2.10;1.10;;;6.80;99.90;;;;;;5066760;28;20036;-71
2022/09/29 02:20:15;;;;;;;1.05;0.55;;;6.80;99.90;;;;;;5055655;28;20044;-71
2022/09/29 02:22:41;;;;;;;1.33;0.85;;;6.70;99.90;;;;;;5059734;28;20490;-71
2022/09/29 02:25:10;;;;;;;2.45;0.82;;;6.70;99.90;;;;;;5057880;28;20049;-71
2022/09/29 02:27:37;;;;;;;1.38;0.80;;;6.70;99.90;;;;;;5051954;28;20048;-71
2022/09/29 02:30:05;;;;;;;1.55;0.88;;;6.70;99.90;;;;;;5066297;28;20032;-71
2022/09/29 02:32:33;;;;;;;1.42;0.90;;;6.70;99.90;;;;;;5057260;28;20322;-71
2022/09/29 02:35:00;;;;;;;2.45;1.15;;;6.70;99.90;;;;;;5053216;28;20490;-71
2022/09/29 02:37:47;;;;;;;2.00;1.02;;;6.70;99.90;;;;;;5056616;28;20071;-72
2022/09/29 02:40:52;;;;;;;1.42;0.80;;;6.80;99.90;;;;;;5068638;28;20040;-71
2022/09/29 02:43:41;;;;;;;2.75;1.17;;;6.80;99.90;;;;;;5064709;28;20047;-71
2022/09/29 02:46:29;;;;;;;1.83;0.90;;;6.70;99.90;;;;;;5053290;28;20058;-71
2022/09/29 02:49:19;;;;;;;1.20;1.10;;;6.70;99.90;;;;;;5069750;28;20118;-71
2022/09/29 02:52:07;;;;;;;4.63;0.88;;;6.60;99.90;;;;;;5060637;28;20444;-71
2022/09/29 02:55:00;;;;;;;3.83;1.15;;;6.60;99.90;;;;;;5063718;28;20081;-71
2022/09/29 02:57:52;;;;;;;1.67;0.93;;;6.60;99.90;;;;;;5056512;28;20049;-71
2022/09/29 03:00:19;;;;;;;1.85;1.15;;;6.60;99.90;;;;;;5081429;28;20042;-71
2022/09/29 03:02:45;;;;;;;2.17;1.42;;;6.50;99.90;;;;;;5069614;28;20725;-71
2022/09/29 03:05:17;;;;;;;3.03;1.30;;;6.50;99.90;;;;;;5068531;28;20041;-71
2022/09/29 03:07:43;;;;;;;2.13;1.10;;;6.50;99.90;;;;;;5042236;28;20038;-71
2022/09/29 03:10:10;;;;;;;2.60;1.20;;;6.50;99.90;;;;;;5061995;28;20118;-71
2022/09/29 03:12:36;;;;;;;3.20;1.45;;;6.50;99.90;;;;;;5075268;28;20095;-72
2022/09/29 03:15:03;;;;;;;3.50;2.08;;;6.40;99.90;;;;;;5054021;28;20032;-71
2022/09/29 03:17:29;;;;;;;2.45;1.23;;;6.40;99.90;;;;;;5060005;28;20493;-71
2022/09/29 03:19:55;;;;;;;4.50;1.88;;;6.40;99.90;;;;;;5044806;28;20067;-71
2022/09/29 03:22:20;;;;;;;2.97;1.27;;;6.40;99.90;;;;;;5061388;28;20029;-71
2022/09/29 03:24:46;;;;;;;4.93;2.03;;;6.40;99.90;;;;;;5063285;28;20569;-71
2022/09/29 03:27:11;;;;;;;3.50;1.48;;;6.40;99.90;;;;;;5078712;28;20045;-72
2022/09/29 03:29:37;;;;;;;2.92;1.40;;;6.40;99.90;;;;;;5065371;28;20807;-72
2022/09/29 03:32:04;;;;;;;2.45;1.50;;;6.40;99.90;;;;;;5060600;28;20040;-71
2022/09/29 03:34:30;;;;;;;3.47;1.58;;;6.40;99.90;;;;;;5096332;28;20296;-71
2022/09/29 03:36:56;;;;;;;2.33;1.20;;;6.40;99.90;;;;;;5066685;28;20044;-71
2022/09/29 03:39:23;;;;;;;3.63;1.65;;;6.40;99.90;;;;;;5082335;28;20037;-71
2022/09/29 03:41:49;;;;;;;4.18;2.05;;;6.40;99.90;;;;;;5079096;28;20036;-71
2022/09/29 03:44:14;;;;;;;3.90;1.92;;;6.40;99.90;;;;;;5065175;28;20037;-71
2022/09/29 03:46:40;;;;;;;1.90;1.15;;;6.40;99.90;;;;;;5058633;28;20086;-71
2022/09/29 03:49:05;;;;;;;3.15;1.58;;;6.40;99.90;;;;;;5079864;28;20037;-71
2022/09/29 03:51:31;;;;;;;5.32;1.65;;;6.50;99.90;;;;;;5059884;28;20044;-71
2022/09/29 03:53:57;;;;;;;2.25;1.30;;;6.50;99.90;;;;;;5065406;28;20033;-71
2022/09/29 03:56:22;;;;;;;2.28;0.82;;;6.50;99.90;;;;;;5060800;28;20410;-71
2022/09/29 03:58:48;;;;;;;3.00;1.35;;;6.50;99.90;;;;;;5065101;28;20284;-71
2022/09/29 04:01:14;;;;;;;2.30;1.48;;;6.50;99.90;;;;;;5065122;28;20452;-71
2022/09/29 04:03:39;;;;;;;3.65;1.60;;;6.40;99.90;;;;;;5062017;28;20445;-71
2022/09/29 04:06:05;;;;;;;4.28;1.58;;;6.40;99.90;;;;;;5040606;28;20115;-71
2022/09/29 04:08:31;;;;;;;3.60;2.40;;;6.40;99.90;;;;;;5067354;28;20055;-71
2022/09/29 04:10:56;;;;;;;2.75;2.08;;;6.40;99.90;;;;;;5074769;28;20314;-71
2022/09/29 04:13:22;;;;;;;3.63;1.73;;;6.40;99.90;;;;;;5081134;28;20524;-71
2022/09/29 04:15:48;;;;;;;4.57;1.98;;;6.50;99.90;;;;;;5059180;28;20336;-71
2022/09/29 04:18:14;;;;;;;6.47;2.03;;;6.50;99.90;;;;;;5063621;28;20043;-71
2022/09/29 04:20:40;;;;;;;4.55;2.13;;;6.50;99.90;;;;;;5073989;28;20426;-71
2022/09/29 04:23:05;;;;;;;4.18;1.67;;;6.50;99.90;;;;;;5064715;28;20119;-71
2022/09/29 04:25:32;;;;;;;3.58;1.77;;;6.50;99.90;;;;;;5060841;28;20040;-71
2022/09/29 04:27:58;;;;;;;3.22;1.48;;;6.50;99.90;;;;;;5077501;28;20057;-71
2022/09/29 04:30:24;;;;;;;2.47;1.45;;;6.60;99.90;;;;;;5062112;28;20560;-71
2022/09/29 04:32:49;;;;;;;3.08;1.95;;;6.50;99.90;;;;;;5061159;28;20101;-71
2022/09/29 04:35:15;;;;;;;3.75;1.90;;;6.50;99.90;;;;;;5065782;28;20043;-71
2022/09/29 04:37:41;;;;;;;3.10;1.60;;;6.50;99.90;;;;;;5069275;28;20036;-71
2022/09/29 04:40:07;;;;;;;4.30;1.95;;;6.50;99.90;;;;;;5060454;28;20158;-71
2022/09/29 04:42:32;;;;;;;4.07;2.00;;;6.50;99.90;;;;;;5068485;28;20712;-71
2022/09/29 04:44:59;;;;;;;2.90;1.83;;;6.40;99.90;;;;;;5039371;28;20054;-72
2022/09/29 04:47:24;;;;;;;2.80;1.70;;;6.40;99.90;;;;;;5056672;28;20062;-71
2022/09/29 04:49:50;;;;;;;4.07;2.05;;;6.40;99.90;;;;;;5060547;28;20029;-71
2022/09/29 04:52:15;;;;;;;3.10;1.60;;;6.40;99.90;;;;;;5080738;28;20029;-71
2022/09/29 04:54:41;;;;;;;3.75;1.90;;;6.40;99.90;;;;;;5061956;28;20079;-71
2022/09/29 04:57:08;;;;;;;2.17;1.45;;;6.40;99.90;;;;;;5045397;28;20033;-71
2022/09/29 04:59:34;;;;;;;2.78;1.50;;;6.40;99.90;;;;;;5080618;28;20063;-71
2022/09/29 05:01:59;;;;;;;6.05;2.30;;;6.40;99.90;;;;;;5058355;28;20474;-71
2022/09/29 05:04:25;;;;;;;2.45;1.50;;;6.40;99.90;;;;;;5058716;28;20041;-71
2022/09/29 05:06:51;;;;;;;3.25;1.88;;;6.40;99.90;;;;;;5089790;28;20174;-72
2022/09/29 05:09:16;;;;;;;3.75;2.05;;;6.40;99.90;;;;;;5072664;28;20032;-71
2022/09/29 05:11:42;;;;;;;4.30;1.77;;;6.40;99.90;;;;;;5059715;28;20056;-72
2022/09/29 05:14:09;;;;;;;3.58;2.17;;;6.40;99.90;;;;;;5065742;28;20109;-71
2022/09/29 05:16:34;;;;;;;2.65;1.60;;;6.40;99.90;;;;;;5090946;27;20048;-72
2022/09/29 05:19:00;;;;;;;2.45;1.75;;;6.40;99.90;;;;;;5056407;28;20037;-72
2022/09/29 05:21:26;;;;;;;3.45;2.08;;;6.30;99.90;;;;;;5059754;28;20239;-71
2022/09/29 05:23:51;;;;;;;3.28;2.13;;;6.30;99.90;;;;;;5078937;28;20045;-71
2022/09/29 05:26:17;;;;;;;3.90;1.92;;;6.30;99.90;;;;;;5077056;28;20414;-71
2022/09/29 05:28:45;;;;;;;5.10;1.92;;;6.30;99.90;;;;;;5059548;28;20040;-71
2022/09/29 05:31:11;;;;;;;2.40;1.67;;;6.30;99.90;;;;;;5060584;28;20041;-71
2022/09/29 05:33:36;;;;;;;2.33;1.42;;;6.30;99.90;;;;;;5057221;28;20402;-71
2022/09/29 05:36:07;;;;;;;2.67;1.58;;;6.30;99.90;;;;;;5091096;28;20041;-71
2022/09/29 05:38:34;;;;;;;3.05;2.30;;;6.30;99.90;;;;;;5048147;28;20048;-71
2022/09/29 05:41:05;;;;;;;3.75;1.90;;;6.30;99.90;;;;;;5091568;28;20067;-71
2022/09/29 05:43:30;;;;;;;2.15;1.52;;;6.30;99.90;;;;;;5079975;28;20447;-72
2022/09/29 05:46:04;;;;;;;1.83;1.45;;;6.20;99.90;;;;;;5076002;28;20041;-71
2022/09/29 05:48:30;;;;;;;3.70;1.67;;;6.30;99.90;;;;;;5060035;28;20599;-72
2022/09/29 05:50:56;;;;;;;2.58;1.55;;;6.20;99.90;;;;;;5061553;28;20355;-71
2022/09/29 05:53:22;;;;;;;3.38;1.75;;;6.20;99.90;;;;;;5054021;28;20130;-71
2022/09/29 05:55:48;;;;;;;2.75;1.42;;;6.20;99.90;;;;;;5050896;28;20048;-71
2022/09/29 05:58:13;;;;;;;2.60;1.80;;;6.20;99.90;;;;;;5060624;28;20552;-71
2022/09/29 06:00:39;;;;;;;2.53;1.45;;;6.20;99.90;;;;;;5063841;28;20727;-71
2022/09/29 06:03:04;;;;;;;2.42;1.48;;;6.20;99.90;;;;;;5063678;28;20068;-71
2022/09/29 06:05:30;;;;;;;2.03;1.40;;;6.20;99.90;;;;;;5087456;27;20052;-72
2022/09/29 06:07:56;;;;;;;4.43;2.30;;;6.20;99.90;;;;;;5059621;28;20039;-72
2022/09/29 06:10:22;;;;;;;4.72;2.15;;;6.20;99.90;;;;;;5053534;28;20037;-72
2022/09/29 06:12:47;;;;;;;3.15;2.00;;;6.20;99.90;;;;;;5090669;27;20028;-71
2022/09/29 06:15:13;;;;;;;2.20;1.42;;;6.20;99.90;;;;;;5070990;28;20080;-71
2022/09/29 06:17:39;;;;;;;3.78;2.00;;;6.20;99.90;;;;;;5059495;28;20036;-71
2022/09/29 06:20:06;;;;;;;2.45;1.92;;;6.20;99.90;;;;;;5055341;28;20032;-71
2022/09/29 06:22:32;;;;;;;3.65;2.05;;;6.20;99.90;;;;;;5064672;28;20047;-71
2022/09/29 06:24:58;;;;;;;4.63;2.67;;;6.20;99.90;;;;;;5055684;28;20623;-72
2022/09/29 06:27:23;;;;;;;6.57;3.00;;;6.30;99.90;;;;;;5056860;28;20044;-71
2022/09/29 06:29:49;;;;;;;5.35;2.38;;;6.30;99.90;;;;;;5057493;28;20101;-71
2022/09/29 06:32:15;;;;;;;2.90;2.05;;;6.40;99.90;;;;;;5084331;28;20036;-71
2022/09/29 06:37:33;;;;;;;5.57;2.92;;;6.50;99.90;;;;;;5047726;28;20082;-71
2022/09/29 06:40:03;;;;;;;7.20;3.42;;;6.50;99.90;;;;;;5070906;28;20455;-71
2022/09/29 06:42:29;;;;;;;5.47;3.03;;;6.60;99.90;;;;;;5058796;28;20039;-71
2022/09/29 06:44:54;;;;;;;7.13;2.70;;;6.60;99.90;;;;;;5067444;28;20032;-71
2022/09/29 06:47:20;;;;;;;5.80;2.97;;;6.70;99.90;;;;;;5036193;28;20569;-72
2022/09/29 06:49:45;;;;;;;8.32;3.25;;;6.70;99.90;;;;;;5073115;28;20119;-71
2022/09/29 06:52:11;;;;;;;5.88;3.35;;;6.80;99.90;;;;;;5063255;28;20071;-71
2022/09/29 06:54:37;;;;;;;7.13;3.80;;;6.80;99.90;;;;;;5089382;28;20409;-71
2022/09/29 06:57:02;;;;;;;5.20;2.92;;;6.90;99.90;;;;;;5050273;28;20047;-71
2022/09/29 06:59:28;;;;;;;7.18;3.63;;;6.90;99.90;;;;;;5088760;28;20576;-72
2022/09/29 07:01:54;;;;;;;7.35;3.70;;;7.00;99.90;;;;;;5059518;28;20573;-72
2022/09/29 07:04:20;;;;;;;8.57;3.15;;;7.00;99.90;;;;;;5054004;28;20032;-72
2022/09/29 07:06:46;;;;;;;5.20;2.75;;;7.00;99.90;;;;;;5091871;28;20087;-71
2022/09/29 07:09:14;;;;;;;5.75;2.90;;;7.10;99.90;;;;;;5053107;28;20032;-72
2022/09/29 07:11:45;;;;;;;5.85;2.80;;;7.10;99.90;;;;;;5076103;28;20071;-71
2022/09/29 07:14:12;;;;;;;6.30;3.47;;;7.20;99.90;;;;;;5051796;28;20623;-72
2022/09/29 07:16:38;;;;;;;7.35;3.63;;;7.20;99.90;;;;;;5070589;28;20051;-71
2022/09/29 07:19:03;;;;;;;6.15;3.13;;;7.30;99.90;;;;;;5052393;28;20402;-71
2022/09/29 07:21:29;;;;;;;8.43;4.35;;;7.30;99.90;;;;;;5058814;28;20112;-71
2022/09/29 07:23:54;;;;;;;8.77;3.47;;;7.30;99.90;;;;;;5044518;28;20118;-71
2022/09/29 07:26:21;;;;;;;6.68;3.38;;;7.40;99.90;;;;;;5078855;28;20064;-72
2022/09/29 07:28:47;;;;;;;5.43;3.28;;;7.50;99.90;;;;;;5062739;28;20044;-71
2022/09/29 07:31:21;;;;;;;8.68;4.05;;;7.50;99.90;;;;;;5081622;28;20037;-71
2022/09/29 07:33:48;;;;;;;5.38;2.97;;;7.50;99.90;;;;;;5077978;28;20119;-71
2022/09/29 07:36:16;;;;;;;8.38;4.30;;;7.50;99.90;;;;;;5077682;28;20440;-71
2022/09/29 07:38:45;;;;;;;7.65;3.35;;;7.60;99.90;;;;;;5082469;28;20041;-71
2022/09/29 07:41:10;;;;;;;7.78;3.35;;;7.60;99.90;;;;;;5065950;28;20459;-71
2022/09/29 07:43:37;;;;;;;5.22;3.10;;;7.60;99.90;;;;;;5067947;28;20119;-71
2022/09/29 07:46:03;;;;;;;5.80;3.45;;;7.60;99.90;;;;;;5051395;28;20391;-71
2022/09/29 07:48:30;;;;;;;7.47;3.05;;;7.60;99.90;;;;;;5067112;28;20076;-71
2022/09/29 07:51:11;;;;;;;7.35;3.85;;;7.60;99.90;;;;;;5068453;28;20084;-71
2022/09/29 07:53:37;;;;;;;7.43;4.00;;;7.70;99.90;;;;;;5081012;28;20033;-71
2022/09/29 07:56:17;;;;;;;6.15;3.72;;;7.70;99.90;;;;;;5086548;28;20511;-71
2022/09/29 07:58:44;;;;;;;7.65;4.30;;;7.70;99.90;;;;;;5086773;28;20036;-71
2022/09/29 08:01:11;;;;;;;6.57;3.40;;;7.80;99.90;;;;;;5070210;28;20592;-70
2022/09/29 08:03:47;;;;;;;7.82;3.65;;;7.80;99.90;;;;;;5070418;28;20040;-71
2022/09/29 08:06:13;;;;;;;6.90;3.45;;;7.90;99.90;;;;;;5086444;28;20052;-71
2022/09/29 08:08:40;;;;;;;5.40;3.30;;;7.90;99.90;;;;;;5083492;28;20049;-71
2022/09/29 08:11:17;;;;;;;5.75;3.58;;;7.90;99.90;;;;;;5067997;28;20043;-71
2022/09/29 08:13:42;;;;;;;7.57;3.97;;;8.00;99.90;;;;;;5086903;28;20111;-71
2022/09/29 08:16:11;;;;;;;6.05;3.58;;;8.10;99.90;;;;;;5067552;28;20132;-71
2022/09/29 08:18:37;;;;;;;8.35;3.92;;;8.20;99.90;;;;;;5056520;28;20052;-71
2022/09/29 08:21:04;;;;;;;5.72;3.33;;;8.20;99.90;;;;;;5064842;28;20048;-71
2022/09/29 08:23:35;;;;;;;7.18;3.60;;;8.30;99.90;;;;;;5086466;28;20520;-71
2022/09/29 08:26:03;;;;;;;6.10;3.30;;;8.30;99.90;;;;;;5064676;28;20087;-70
2022/09/29 08:28:33;;;;;;;5.32;2.97;;;8.30;99.90;;;;;;5069545;28;20498;-70
2022/09/29 08:31:08;;;;;;;6.07;3.30;;;8.40;99.90;;;;;;5061598;28;20041;-70
2022/09/29 08:33:34;;;;;;;7.10;4.00;;;8.40;99.90;;;;;;5049611;28;20037;-71
2022/09/29 08:36:02;;;;;;;6.20;3.92;;;8.50;99.90;;;;;;5066012;28;20052;-71
2022/09/29 08:38:28;;;;;;;8.25;3.55;;;8.50;99.90;;;;;;5049966;28;20047;-72
2022/09/29 08:40:56;;;;;;;6.05;3.45;;;8.60;99.90;;;;;;5057627;28;20037;-71
2022/09/29 08:43:39;;;;;;;6.65;3.60;;;8.60;99.90;;;;;;5071346;28;20069;-70
2022/09/29 08:46:10;;;;;;;4.72;2.53;;;8.70;99.90;;;;;;5051462;28;20055;-71
2022/09/29 08:48:42;;;;;;;6.00;2.63;;;8.80;99.90;;;;;;5068834;28;20037;-71
2022/09/29 08:51:16;;;;;;;7.78;3.28;;;8.80;99.90;;;;;;5071772;28;20642;-71
2022/09/29 08:53:46;;;;;;;7.15;4.15;;;8.90;99.90;;;;;;5069063;28;20060;-71
2022/09/29 08:56:17;;;;;;;5.22;2.90;;;9.00;99.90;;;;;;5075938;28;20048;-71
2022/09/29 08:58:43;;;;;;;6.03;3.42;;;9.00;99.90;;;;;;5049621;28;20135;-71
2022/09/29 09:01:26;;;;;;;5.63;3.13;;;9.10;99.90;;;;;;5073869;28;20090;-70
2022/09/29 09:04:25;;;;;;;7.47;3.28;;;9.10;99.90;;;;;;5068183;28;20041;-71
2022/09/29 09:06:59;;;;;;;6.28;3.13;;;9.20;99.90;;;;;;5055869;28;20460;-71
2022/09/29 09:09:44;;;;;;;6.05;2.97;;;9.30;99.90;;;;;;5048549;28;20037;-71
2022/09/29 09:12:16;;;;;;;5.70;2.75;;;9.40;99.90;;;;;;5019441;28;20498;-71
2022/09/29 09:14:57;;;;;;;4.68;2.33;;;9.50;99.90;;;;;;5089820;28;20052;-71
2022/09/29 09:17:41;;;;;;;5.55;2.53;;;9.60;99.90;;;;;;5093673;28;20052;-71
2022/09/29 09:20:24;;;;;;;5.57;3.22;;;9.70;99.90;;;;;;5054660;28;20324;-71
2022/09/29 09:22:56;;;;;;;4.55;2.50;;;9.80;99.90;;;;;;5083042;28;20048;-70
2022/09/29 09:25:40;;;;;;;5.32;2.67;;;9.90;99.90;;;;;;5056219;28;20095;-71
2022/09/29 09:28:38;;;;;;;4.22;2.28;;;10.00;99.90;;;;;;5091124;27;20040;-70
2022/09/29 09:31:29;;;;;;;8.13;3.05;;;10.00;99.90;;;;;;5033942;28;20051;-71
2022/09/29 09:34:21;;;;;;;6.07;2.65;;;10.00;99.90;;;;;;5087352;27;20664;-71
2022/09/29 09:36:51;;;;;;;5.88;2.85;;;10.10;99.90;;;;;;5069964;28;20041;-71
2022/09/29 09:39:33;;;;;;;5.32;2.58;;;10.10;99.90;;;;;;5063525;28;20745;-71
2022/09/29 09:42:05;;;;;;;4.22;2.05;;;10.10;99.90;;;;;;5047189;28;20946;-71
2022/09/29 09:44:40;;;;;;;6.30;3.25;;;10.10;99.90;;;;;;5056723;28;20051;-71
2022/09/29 09:47:25;;;;;;;6.00;3.17;;;10.20;99.90;;;;;;5060821;28;20048;-70
2022/09/29 09:50:15;;;;;;;5.82;3.20;;;10.30;99.90;;;;;;5065604;28;20045;-70
2022/09/29 09:52:50;;;;;;;6.03;3.10;;;10.30;99.90;;;;;;5050560;28;20540;-71
2022/09/29 09:55:23;;;;;;;5.93;3.17;;;10.30;99.90;;;;;;5069057;28;20590;-70
2022/09/29 09:58:24;;;;;;;6.22;3.50;;;10.30;99.90;;;;;;5052001;28;20044;-71
2022/09/29 10:01:05;;;;;;;9.93;3.10;;;10.40;99.90;;;;;;5051571;28;20086;-70
2022/09/29 10:03:31;;;;;;;4.28;2.15;;;10.40;99.90;;;;;;5072979;28;20115;-71
2022/09/29 10:05:57;;;;;;;4.07;2.22;;;10.40;99.90;;;;;;5050147;28;20459;-70
2022/09/29 10:08:28;;;;;;;3.10;1.70;;;10.50;99.90;;;;;;5068046;28;20040;-71
2022/09/29 10:10:54;;;;;;;4.75;2.33;;;10.60;99.90;;;;;;5083131;28;20511;-71
2022/09/29 10:13:24;;;;;;;15.43;1.88;;;10.60;99.90;;;;;;5064095;28;20162;-71
2022/09/29 10:16:13;;;;;;;6.03;2.75;;;10.60;99.90;;;;;;5071252;28;20051;-72
2022/09/29 10:18:45;;;;;;;6.00;3.00;;;10.70;99.90;;;;;;5052712;28;20060;-71
2022/09/29 10:21:37;;;;;;;4.28;2.47;;;10.80;99.90;;;;;;5030128;28;20039;-71
2022/09/29 10:24:07;;;;;;;5.65;3.00;;;10.80;99.90;;;;;;5091974;27;20129;-71
2022/09/29 10:26:40;;;;;;;3.47;1.88;;;10.90;99.90;;;;;;5067446;28;20068;-71
2022/09/29 10:29:23;;;;;;;3.80;2.10;;;11.00;99.90;;;;;;5054564;28;20045;-71
2022/09/29 10:32:07;;;;;;;3.47;1.77;;;11.10;99.90;;;;;;5065903;28;20036;-71
2022/09/29 10:34:40;;;;;;;5.32;2.47;;;11.10;99.90;;;;;;5071029;28;20044;-71
2022/09/29 10:37:27;;;;;;;3.10;1.85;;;11.10;99.90;;;;;;5090364;27;20037;-71
2022/09/29 10:40:22;;;;;;;3.38;1.80;;;11.10;99.90;;;;;;5069725;28;20032;-71
2022/09/29 10:42:50;;;;;;;6.60;1.65;;;11.20;99.90;;;;;;5048769;28;20485;-72
2022/09/29 10:45:20;;;;;;;5.03;2.17;;;11.20;99.90;;;;;;5067092;28;20052;-72
2022/09/29 10:47:58;;;;;;;3.60;1.80;;;11.30;99.90;;;;;;5071696;28;20502;-71
2022/09/29 10:50:29;;;;;;;4.57;2.30;;;11.30;99.90;;;;;;5037930;28;20483;-71
2022/09/29 10:53:00;;;;;;;3.63;1.67;;;11.30;99.90;;;;;;5054841;28;20056;-71
2022/09/29 10:55:32;;;;;;;3.97;1.88;;;11.30;99.90;;;;;;5061650;28;20149;-71
2022/09/29 10:58:05;;;;;;;3.42;1.85;;;11.40;99.90;;;;;;5056467;28;21898;-71
2022/09/29 11:00:37;;;;;;;3.83;1.40;;;11.40;99.90;;;;;;5068579;28;20279;-71
2022/09/29 11:03:05;;;;;;;2.35;0.93;;;11.50;99.90;;;;;;5057270;28;20041;-71
2022/09/29 11:05:31;;;;;;;4.45;0.93;;;11.60;99.90;;;;;;5086045;28;20043;-71
2022/09/29 11:07:57;;;;;;;1.35;0.75;;;11.60;99.90;;;;;;5063517;28;20032;-71
2022/09/29 11:10:30;;;;;;;2.60;1.15;;;11.80;99.90;;;;;;5060001;28;20039;-71
2022/09/29 11:12:59;;;;;;;1.45;0.60;;;11.80;99.90;;;;;;5068542;28;20393;-71
2022/09/29 11:15:39;;;;;;;2.60;1.20;;;11.80;99.90;;;;;;5067360;28;20563;-72
2022/09/29 11:18:20;;;;;;;1.85;0.90;;;11.80;99.90;;;;;;5065736;28;20047;-71
2022/09/29 11:21:03;;;;;;;1.10;0.65;;;11.80;99.90;;;;;;5082446;27;20062;-71
2022/09/29 11:23:58;;;;;;;1.70;0.95;;;11.80;99.90;;;;;;5043754;28;20082;-72
2022/09/29 11:26:51;;;;;;;1.90;0.77;;;11.80;99.90;;;;;;5093494;27;20075;-71
2022/09/29 11:29:41;;;;;;;1.90;1.02;;;11.80;99.90;;;;;;5094499;27;20536;-71
2022/09/29 11:32:13;;;;;;;2.38;1.13;;;11.90;99.90;;;;;;5056773;28;20115;-71
2022/09/29 11:35:04;;;;;;;1.33;0.80;;;11.90;99.90;;;;;;5068176;28;20048;-71
2022/09/29 11:37:37;;;;;;;1.13;0.60;;;12.00;99.90;;;;;;5063833;28;20048;-71
2022/09/29 11:40:19;;;;;;;1.52;0.75;;;12.00;99.90;;;;;;5068102;28;20049;-71
2022/09/29 11:43:13;;;;;;;1.13;0.65;;;11.90;99.90;;;;;;5063268;28;20037;-71
2022/09/29 11:45:57;;;;;;;1.92;0.82;;;11.90;99.90;;;;;;5038543;28;20644;-71
2022/09/29 11:48:45;;;;;;;1.77;0.95;;;11.80;99.90;;;;;;5067006;28;20059;-71
2022/09/29 11:51:27;;;;;;;1.45;0.75;;;11.80;99.90;;;;;;5058686;28;20044;-74
2022/09/29 11:53:52;;;;;;;1.65;0.90;;;11.80;99.90;;;;;;5055539;28;20055;-75
2022/09/29 11:56:33;;;;;;;1.65;0.63;;;11.70;99.90;;;;;;5068737;28;20032;-71
2022/09/29 11:59:26;;;;;;;1.60;0.95;;;11.60;99.90;;;;;;5102305;27;20090;-71
2022/09/29 12:02:27;;;;;;;1.38;0.77;;;11.60;99.90;;;;;;5054517;28;20036;-71
2022/09/29 12:05:06;;;;;;;1.15;0.70;;;11.50;99.90;;;;;;5071692;28;20398;-73
2022/09/29 12:07:47;;;;;;;1.15;0.70;;;11.50;99.90;;;;;;5057396;28;20094;-71
2022/09/29 12:10:24;;;;;;;1.20;0.50;;;11.50;99.90;;;;;;5068874;28;20079;-71
2022/09/29 12:13:19;;;;;;;1.33;0.60;;;11.60;99.90;;;;;;5051261;28;20068;-71
2022/09/29 12:16:09;;;;;;;0.63;0.40;;;11.70;99.90;;;;;;5096176;27;20037;-71
2022/09/29 12:18:57;;;;;;;0.75;0.40;;;11.70;99.90;;;;;;5043876;28;20037;-71
2022/09/29 12:21:31;;;;;;;0.80;0.40;;;11.70;99.90;;;;;;5059018;28;20036;-71
2022/09/29 12:23:59;;;;;;;1.08;0.45;;;11.70;99.90;;;;;;5072313;28;20045;-71
2022/09/29 12:26:26;;;;;;;0.90;0.43;;;11.70;99.90;;;;;;5065381;28;20759;-70
2022/09/29 12:29:07;;;;;;;0.35;0.28;;;11.70;99.90;;;;;;5057031;28;20097;-71
2022/09/29 12:31:46;;;;;;;2.80;0.43;;;11.70;99.90;;;;;;5051858;28;20520;-71
2022/09/29 12:34:16;;;;;;;0.90;0.40;;;11.70;99.90;;;;;;5063844;28;20119;-71
2022/09/29 12:37:02;;;;;;;0.20;0.20;;;11.70;99.90;;;;;;5062323;28;20542;-71
2022/09/29 12:39:44;;;;;;;0.75;0.38;;;11.70;99.90;;;;;;5059020;28;20048;-71
2022/09/29 12:42:48;;;;;;;2.13;0.40;;;11.70;99.90;;;;;;5076616;28;20178;-71
2022/09/29 12:45:47;;;;;;;1.05;0.35;;;11.90;99.90;;;;;;5053854;28;20044;-71
2022/09/29 12:48:45;;;;;;;0.65;0.30;;;12.00;99.90;;;;;;5086617;27;20059;-71
2022/09/29 12:51:38;;;;;;;1.33;0.30;;;12.10;99.90;;;;;;5021135;28;20051;-71
2022/09/29 12:54:10;;;;;;;0.70;0.30;;;12.10;99.90;;;;;;5069559;28;20555;-71
2022/09/29 12:56:38;;;;;;;0.98;0.50;;;12.20;99.90;;;;;;5058267;28;20118;-71
2022/09/29 12:59:26;;;;;;;1.38;0.50;;;12.20;99.90;;;;;;5055833;28;20048;-71
2022/09/29 13:01:55;;;;;;;1.77;0.73;;;12.20;99.90;;;;;;5049843;28;20040;-71
2022/09/29 13:04:36;;;;;;;2.17;0.50;;;12.20;99.90;;;;;;5054579;28;20039;-71
2022/09/29 13:07:10;;;;;;;0.80;0.40;;;12.30;99.90;;;;;;5073054;28;20545;-71
2022/09/29 13:10:13;;;;;;;0.88;0.50;;;12.30;99.90;;;;;;5067244;28;20033;-72
2022/09/29 13:12:46;;;;;;;0.98;0.55;;;12.40;99.90;;;;;;5050346;28;20041;-71
2022/09/29 13:15:32;;;;;;;1.10;0.60;;;12.50;99.90;;;;;;5089271;27;20040;-71
2022/09/29 13:18:20;;;;;;;1.17;0.65;;;12.50;99.90;;;;;;5060310;28;20036;-71
2022/09/29 13:21:03;;;;;;;0.60;0.30;;;12.60;99.90;;;;;;5058252;28;20040;-72
2022/09/29 13:23:44;;;;;;;1.60;0.50;;;12.70;99.90;;;;;;5073041;28;20148;-71